sensor_id;sensor_type;location;lat;lon;timestamp;P1;durP1;ratioP1;P2;durP2;ratioP2
7883;SDS011;3987;51.458;7.238;2023-04-16T00:06:53;33.60;;;19.60;;
7883;SDS011;3987;51.458;7.238;2023-04-16T00:21:53;37.03;;;20.10;;
7883;SDS011;3987;51.458;7.238;2023-04-16T00:36:54;31.97;;;18.97;;
7883;SDS011;3987;51.458;7.238;2023-04-16T00:51:54;34.00;;;19.70;;
7883;SDS011;3987;51.458;7.238;2023-04-16T01:06:55;38.27;;;20.37;;
7883;SDS011;3987;51.458;7.238;2023-04-16T01:21:56;36.10;;;20.73;;
7883;SDS011;3987;51.458;7.238;2023-04-16T01:36:57;45.03;;;22.17;;
7883;SDS011;3987;51.458;7.238;2023-04-16T01:51:58;50.10;;;22.47;;
7883;SDS011;3987;51.458;7.238;2023-04-16T02:06:58;38.73;;;22.63;;
7883;SDS011;3987;51.458;7.238;2023-04-16T02:21:58;49.87;;;26.10;;
7883;SDS011;3987;51.458;7.238;2023-04-16T02:37:00;53.30;;;27.20;;
7883;SDS011;3987;51.458;7.238;2023-04-16T02:52:01;54.50;;;28.70;;
7883;SDS011;3987;51.458;7.238;2023-04-16T03:07:02;53.33;;;29.50;;
7883;SDS011;3987;51.458;7.238;2023-04-16T03:22:03;61.37;;;31.00;;
7883;SDS011;3987;51.458;7.238;2023-04-16T03:37:03;58.17;;;31.57;;
7883;SDS011;3987;51.458;7.238;2023-04-16T03:52:05;63.83;;;31.70;;
7883;SDS011;3987;51.458;7.238;2023-04-16T04:07:05;67.27;;;33.20;;
7883;SDS011;3987;51.458;7.238;2023-04-16T04:22:06;63.77;;;33.50;;
7883;SDS011;3987;51.458;7.238;2023-04-16T04:37:06;74.67;;;33.73;;
7883;SDS011;3987;51.458;7.238;2023-04-16T04:52:07;80.83;;;34.73;;
7883;SDS011;3987;51.458;7.238;2023-04-16T05:07:07;77.30;;;34.33;;
7883;SDS011;3987;51.458;7.238;2023-04-16T05:22:08;72.83;;;34.70;;
7883;SDS011;3987;51.458;7.238;2023-04-16T05:37:08;72.63;;;33.83;;
7883;SDS011;3987;51.458;7.238;2023-04-16T05:52:09;74.93;;;33.83;;
7883;SDS011;3987;51.458;7.238;2023-04-16T06:07:09;73.77;;;34.30;;
7883;SDS011;3987;51.458;7.238;2023-04-16T06:22:10;77.90;;;35.00;;
7883;SDS011;3987;51.458;7.238;2023-04-16T06:37:10;61.90;;;35.23;;
7883;SDS011;3987;51.458;7.238;2023-04-16T06:52:10;65.47;;;34.90;;
7883;SDS011;3987;51.458;7.238;2023-04-16T07:07:11;58.87;;;31.63;;
7883;SDS011;3987;51.458;7.238;2023-04-16T07:22:11;49.77;;;31.13;;
7883;SDS011;3987;51.458;7.238;2023-04-16T07:37:12;60.60;;;33.83;;
7883;SDS011;3987;51.458;7.238;2023-04-16T07:52:12;44.87;;;30.13;;
7883;SDS011;3987;51.458;7.238;2023-04-16T08:07:12;49.33;;;29.40;;
7883;SDS011;3987;51.458;7.238;2023-04-16T08:22:13;42.30;;;28.27;;
7883;SDS011;3987;51.458;7.238;2023-04-16T08:37:13;41.83;;;27.53;;
7883;SDS011;3987;51.458;7.238;2023-04-16T08:52:17;33.07;;;24.77;;
7883;SDS011;3987;51.458;7.238;2023-04-16T09:07:19;32.93;;;25.70;;
7883;SDS011;3987;51.458;7.238;2023-04-16T09:22:20;31.50;;;22.80;;
7883;SDS011;3987;51.458;7.238;2023-04-16T09:37:20;30.20;;;23.70;;
7883;SDS011;3987;51.458;7.238;2023-04-16T09:52:21;30.23;;;23.40;;
7883;SDS011;3987;51.458;7.238;2023-04-16T10:07:22;33.22;;;23.73;;
7883;SDS011;3987;51.458;7.238;2023-04-16T10:22:27;29.77;;;23.13;;
7883;SDS011;3987;51.458;7.238;2023-04-16T10:37:30;29.10;;;23.70;;
7883;SDS011;3987;51.458;7.238;2023-04-16T10:52:31;26.90;;;22.63;;
7883;SDS011;3987;51.458;7.238;2023-04-16T11:07:32;22.57;;;19.70;;
7883;SDS011;3987;51.458;7.238;2023-04-16T11:22:41;21.57;;;19.27;;
7883;SDS011;3987;51.458;7.238;2023-04-16T11:37:42;19.60;;;17.70;;
7883;SDS011;3987;51.458;7.238;2023-04-16T11:52:42;22.83;;;18.13;;
7883;SDS011;3987;51.458;7.238;2023-04-16T12:07:43;19.37;;;17.40;;
7883;SDS011;3987;51.458;7.238;2023-04-16T12:22:45;22.47;;;18.43;;
7883;SDS011;3987;51.458;7.238;2023-04-16T12:37:48;20.60;;;18.57;;
7883;SDS011;3987;51.458;7.238;2023-04-16T12:52:48;21.33;;;19.13;;
7883;SDS011;3987;51.458;7.238;2023-04-16T13:07:49;23.03;;;18.87;;
7883;SDS011;3987;51.458;7.238;2023-04-16T13:22:49;21.47;;;19.17;;
7883;SDS011;3987;51.458;7.238;2023-04-16T13:37:50;17.63;;;15.97;;
7883;SDS011;3987;51.458;7.238;2023-04-16T13:52:50;15.57;;;14.27;;
7883;SDS011;3987;51.458;7.238;2023-04-16T14:07:50;16.80;;;13.80;;
7883;SDS011;3987;51.458;7.238;2023-04-16T14:22:51;16.07;;;14.43;;
7883;SDS011;3987;51.458;7.238;2023-04-16T14:37:51;16.70;;;14.90;;
7883;SDS011;3987;51.458;7.238;2023-04-16T14:52:52;15.70;;;14.30;;
7883;SDS011;3987;51.458;7.238;2023-04-16T15:07:53;13.97;;;12.67;;
7883;SDS011;3987;51.458;7.238;2023-04-16T15:22:54;14.83;;;13.57;;
7883;SDS011;3987;51.458;7.238;2023-04-16T15:37:54;13.80;;;12.70;;
7883;SDS011;3987;51.458;7.238;2023-04-16T15:52:55;12.20;;;11.33;;
7883;SDS011;3987;51.458;7.238;2023-04-16T16:07:56;13.93;;;12.77;;
7883;SDS011;3987;51.458;7.238;2023-04-16T16:22:56;12.87;;;11.60;;
7883;SDS011;3987;51.458;7.238;2023-04-16T16:37:57;13.83;;;12.53;;
7883;SDS011;3987;51.458;7.238;2023-04-16T16:52:58;13.93;;;12.73;;
7883;SDS011;3987;51.458;7.238;2023-04-16T17:07:59;15.87;;;13.60;;
7883;SDS011;3987;51.458;7.238;2023-04-16T17:22:59;13.33;;;12.20;;
7883;SDS011;3987;51.458;7.238;2023-04-16T17:38:00;13.43;;;12.23;;
7883;SDS011;3987;51.458;7.238;2023-04-16T17:53:00;14.87;;;13.47;;
7883;SDS011;3987;51.458;7.238;2023-04-16T18:08:02;14.33;;;13.23;;
7883;SDS011;3987;51.458;7.238;2023-04-16T18:23:03;26.70;;;18.67;;
7883;SDS011;3987;51.458;7.238;2023-04-16T18:38:03;29.23;;;21.03;;
7883;SDS011;3987;51.458;7.238;2023-04-16T18:53:04;30.83;;;22.63;;
7883;SDS011;3987;51.458;7.238;2023-04-16T19:08:04;38.37;;;22.30;;
7883;SDS011;3987;51.458;7.238;2023-04-16T19:23:04;29.53;;;21.87;;
7883;SDS011;3987;51.458;7.238;2023-04-16T19:38:07;28.40;;;19.13;;
7883;SDS011;3987;51.458;7.238;2023-04-16T19:53:08;21.70;;;18.47;;
7883;SDS011;3987;51.458;7.238;2023-04-16T20:08:09;21.43;;;17.67;;
7883;SDS011;3987;51.458;7.238;2023-04-16T20:23:10;25.80;;;19.93;;
7883;SDS011;3987;51.458;7.238;2023-04-16T20:38:10;26.90;;;19.63;;
7883;SDS011;3987;51.458;7.238;2023-04-16T20:53:10;27.33;;;19.60;;
7883;SDS011;3987;51.458;7.238;2023-04-16T21:08:12;23.57;;;18.70;;
7883;SDS011;3987;51.458;7.238;2023-04-16T21:23:12;24.47;;;19.40;;
7883;SDS011;3987;51.458;7.238;2023-04-16T21:38:12;26.90;;;22.47;;
7883;SDS011;3987;51.458;7.238;2023-04-16T21:53:13;37.13;;;24.97;;
7883;SDS011;3987;51.458;7.238;2023-04-16T22:08:13;45.03;;;28.50;;
7883;SDS011;3987;51.458;7.238;2023-04-16T22:23:14;51.83;;;29.33;;
7883;SDS011;3987;51.458;7.238;2023-04-16T22:38:14;47.53;;;30.83;;
7883;SDS011;3987;51.458;7.238;2023-04-16T22:53:15;50.43;;;32.60;;
7883;SDS011;3987;51.458;7.238;2023-04-16T23:08:15;49.93;;;32.93;;
7883;SDS011;3987;51.458;7.238;2023-04-16T23:23:16;55.17;;;33.50;;
7883;SDS011;3987;51.458;7.238;2023-04-16T23:38:16;51.57;;;33.50;;
7883;SDS011;3987;51.458;7.238;2023-04-16T23:53:17;49.73;;;33.80;;
